createdAt,value
2023-04-15T00:01:49.465Z,9.20
2023-04-15T00:04:17.367Z,7.30
2023-04-15T00:06:51.805Z,7.43
2023-04-15T00:09:19.727Z,6.10
2023-04-15T00:11:47.678Z,6.03
2023-04-15T00:14:15.567Z,7.33
2023-04-15T00:16:43.328Z,6.37
2023-04-15T00:19:12.380Z,5.20
2023-04-15T00:21:40.243Z,4.93
2023-04-15T00:24:08.375Z,5.47
2023-04-15T00:26:36.204Z,5.33
2023-04-15T00:29:04.370Z,6.87
2023-04-15T00:31:32.938Z,5.80
2023-04-15T00:34:00.771Z,5.17
2023-04-15T00:36:29.896Z,5.83
2023-04-15T00:38:57.791Z,5.83
2023-04-15T00:41:25.734Z,5.57
2023-04-15T00:43:54.259Z,6.60
2023-04-15T00:46:22.383Z,7.07
2023-04-15T00:48:50.213Z,6.90
2023-04-15T00:51:17.930Z,8.80
2023-04-15T00:53:47.123Z,5.97
2023-04-15T00:56:15.160Z,6.87
2023-04-15T00:58:43.334Z,7.33
2023-04-15T01:01:11.522Z,7.33
2023-04-15T01:03:39.388Z,6.70
2023-04-15T01:06:07.621Z,6.60
2023-04-15T01:08:35.516Z,7.37
2023-04-15T01:11:04.909Z,6.27
2023-04-15T01:13:37.307Z,7.07
2023-04-15T01:16:05.367Z,7.03
2023-04-15T01:18:33.420Z,7.00
2023-04-15T01:21:03.684Z,9.23
2023-04-15T01:23:31.551Z,6.90
2023-04-15T01:26:01.005Z,7.30
2023-04-15T01:28:28.891Z,9.27
2023-04-15T01:31:08.007Z,6.73
2023-04-15T01:33:36.654Z,8.17
2023-04-15T01:36:05.306Z,7.60
2023-04-15T01:38:33.541Z,7.40
2023-04-15T01:41:02.945Z,8.47
2023-04-15T01:43:30.765Z,8.10
2023-04-15T01:45:58.493Z,9.43
2023-04-15T01:48:27.341Z,8.70
2023-04-15T01:50:57.620Z,11.00
2023-04-15T01:53:25.770Z,10.13
2023-04-15T01:55:53.787Z,11.13
2023-04-15T01:58:23.068Z,10.77
2023-04-15T02:00:50.864Z,10.90
2023-04-15T02:03:19.013Z,11.53
2023-04-15T02:05:46.847Z,11.13
2023-04-15T02:08:14.569Z,11.57
2023-04-15T02:10:42.308Z,11.67
2023-04-15T02:13:10.871Z,11.63
2023-04-15T02:15:39.913Z,11.70
2023-04-15T02:18:07.729Z,11.07
2023-04-15T02:20:36.346Z,11.07
2023-04-15T02:23:07.296Z,11.53
2023-04-15T02:25:35.001Z,11.97
2023-04-15T02:28:02.725Z,12.13
2023-04-15T02:30:30.428Z,12.77
2023-04-15T02:32:59.510Z,10.70
2023-04-15T02:35:27.787Z,10.97
2023-04-15T02:37:55.519Z,10.67
2023-04-15T02:40:23.528Z,11.07
2023-04-15T02:42:51.243Z,10.77
2023-04-15T02:45:23.634Z,11.63
2023-04-15T02:47:51.490Z,9.47
2023-04-15T02:50:21.009Z,10.03
2023-04-15T02:52:48.723Z,9.67
2023-04-15T02:55:17.990Z,11.47
2023-04-15T02:57:45.765Z,10.03
2023-04-15T03:00:14.902Z,9.80
2023-04-15T03:02:43.223Z,9.30
2023-04-15T03:05:13.939Z,9.73
2023-04-15T03:07:43.034Z,9.97
2023-04-15T03:10:11.764Z,9.70
2023-04-15T03:12:39.501Z,9.73
2023-04-15T03:15:08.549Z,10.63
2023-04-15T03:17:36.482Z,12.20
2023-04-15T03:20:05.249Z,14.10
2023-04-15T03:22:33.327Z,10.50
2023-04-15T03:25:02.451Z,9.27
2023-04-15T03:27:30.090Z,11.07
2023-04-15T03:29:57.863Z,9.87
2023-04-15T03:32:25.884Z,9.90
2023-04-15T03:34:53.606Z,11.20
2023-04-15T03:37:21.616Z,11.33
2023-04-15T03:39:49.389Z,10.63
2023-04-15T03:42:18.509Z,10.33
2023-04-15T03:44:46.664Z,12.13
2023-04-15T03:47:14.347Z,12.73
2023-04-15T03:49:42.129Z,10.73
2023-04-15T03:52:09.878Z,15.60
2023-04-15T03:54:37.776Z,12.33
2023-04-15T03:57:05.788Z,12.83
2023-04-15T03:59:34.881Z,15.00
2023-04-15T04:02:02.742Z,14.80
2023-04-15T04:04:30.584Z,13.30
2023-04-15T04:06:58.321Z,15.07
2023-04-15T04:09:25.981Z,14.70
2023-04-15T04:11:53.652Z,14.27
2023-04-15T04:14:21.411Z,15.00
2023-04-15T04:16:50.857Z,15.23
2023-04-15T04:19:19.966Z,14.47
2023-04-15T04:21:47.772Z,14.57
2023-04-15T04:24:15.799Z,14.27
2023-04-15T04:26:43.653Z,14.33
2023-04-15T04:29:11.640Z,14.77
2023-04-15T04:31:39.611Z,18.87
2023-04-15T04:34:08.752Z,14.63
2023-04-15T04:36:36.657Z,15.67
2023-04-15T04:39:04.594Z,15.20
2023-04-15T04:41:32.344Z,17.47
2023-04-15T04:44:00.204Z,18.73
2023-04-15T04:46:27.956Z,17.13
2023-04-15T04:48:55.852Z,18.80
2023-04-15T04:51:26.389Z,18.00
2023-04-15T04:53:54.192Z,16.87
2023-04-15T04:56:21.922Z,15.30
2023-04-15T04:58:49.622Z,20.00
2023-04-15T05:01:17.453Z,14.80
2023-04-15T05:03:45.558Z,18.33
2023-04-15T05:06:13.415Z,17.10
2023-04-15T05:08:42.561Z,17.97
2023-04-15T05:11:10.296Z,18.30
2023-04-15T05:13:39.108Z,19.70
2023-04-15T05:16:07.568Z,20.63
2023-04-15T05:18:35.297Z,18.93
2023-04-15T05:21:03.790Z,21.17
2023-04-15T05:23:31.544Z,19.43
2023-04-15T05:26:00.678Z,22.80
2023-04-15T05:28:28.444Z,23.67
2023-04-15T05:30:56.389Z,23.33
2023-04-15T05:33:24.423Z,26.50
2023-04-15T05:35:52.116Z,25.43
2023-04-15T05:38:19.823Z,24.87
2023-04-15T05:40:47.531Z,28.43
2023-04-15T05:43:16.615Z,28.83
2023-04-15T05:45:44.375Z,27.27
2023-04-15T05:48:12.081Z,29.17
2023-04-15T05:50:42.165Z,25.70
2023-04-15T05:53:09.981Z,32.00
2023-04-15T05:55:37.721Z,30.20
2023-04-15T05:58:05.386Z,30.77
2023-04-15T06:00:34.606Z,29.93
2023-04-15T06:03:02.445Z,30.37
2023-04-15T06:05:30.232Z,33.57
2023-04-15T06:07:57.910Z,32.10
2023-04-15T06:10:25.751Z,30.63
2023-04-15T06:12:54.141Z,33.47
2023-04-15T06:15:22.094Z,32.67
2023-04-15T06:17:51.489Z,32.80
2023-04-15T06:20:19.474Z,34.00
2023-04-15T06:22:47.213Z,32.30
2023-04-15T06:25:15.130Z,36.07
2023-04-15T06:27:42.814Z,37.47
2023-04-15T06:30:11.332Z,36.70
2023-04-15T06:32:39.316Z,38.27
2023-04-15T06:35:09.000Z,41.67
2023-04-15T06:37:36.719Z,39.57
2023-04-15T06:40:05.215Z,42.63
2023-04-15T06:42:34.024Z,39.53
2023-04-15T06:45:01.884Z,47.10
2023-04-15T06:47:29.669Z,40.97
2023-04-15T06:49:57.375Z,44.83
2023-04-15T06:52:26.464Z,46.30
2023-04-15T06:54:54.173Z,49.17
2023-04-15T06:57:21.953Z,47.10
2023-04-15T06:59:49.627Z,47.83
2023-04-15T07:02:17.477Z,49.27
2023-04-15T07:04:45.211Z,49.13
2023-04-15T07:07:13.382Z,51.70
2023-04-15T07:09:42.862Z,52.27
2023-04-15T07:12:10.554Z,53.03
2023-04-15T07:14:38.208Z,52.53
2023-04-15T07:17:06.044Z,53.40
2023-04-15T07:19:33.769Z,54.43
2023-04-15T07:22:02.248Z,50.07
2023-04-15T07:24:30.139Z,54.03
2023-04-15T07:27:00.862Z,55.50
2023-04-15T07:29:29.065Z,52.67
2023-04-15T07:31:57.325Z,57.13
2023-04-15T07:34:25.128Z,53.43
2023-04-15T07:36:52.812Z,58.67
2023-04-15T07:39:20.530Z,61.00
2023-04-15T07:41:49.043Z,58.27
2023-04-15T07:44:18.140Z,58.47
2023-04-15T07:46:46.061Z,60.47
2023-04-15T07:49:14.505Z,58.43
2023-04-15T07:51:42.218Z,53.27
2023-04-15T07:54:10.035Z,53.60
2023-04-15T07:56:37.864Z,57.57
2023-04-15T07:59:06.527Z,57.20
2023-04-15T08:01:35.758Z,56.77
2023-04-15T08:04:03.836Z,58.67
2023-04-15T08:06:33.000Z,61.13
2023-04-15T08:09:01.091Z,58.13
2023-04-15T08:11:29.187Z,61.30
2023-04-15T08:13:56.942Z,58.07
2023-04-15T08:16:25.995Z,58.17
2023-04-15T08:18:57.659Z,68.30
2023-04-15T08:21:25.850Z,57.43
2023-04-15T08:23:54.477Z,63.37
2023-04-15T08:26:22.802Z,61.50
2023-04-15T08:28:51.221Z,62.70
2023-04-15T08:31:20.183Z,61.20
2023-04-15T08:33:48.023Z,63.50
2023-04-15T08:36:17.634Z,62.67
2023-04-15T08:38:46.205Z,63.43
2023-04-15T08:41:22.817Z,60.67
2023-04-15T08:43:54.793Z,60.27
2023-04-15T08:46:23.153Z,67.17
2023-04-15T08:48:51.384Z,61.40
2023-04-15T08:51:23.772Z,67.50
2023-04-15T08:53:52.750Z,68.10
2023-04-15T08:56:23.275Z,66.70
2023-04-15T08:58:52.205Z,58.53
2023-04-15T09:01:20.467Z,67.57
2023-04-15T09:03:50.209Z,60.47
2023-04-15T09:06:18.564Z,60.17
2023-04-15T09:08:47.628Z,64.43
2023-04-15T09:11:15.414Z,64.30
2023-04-15T09:13:43.154Z,66.60
2023-04-15T09:16:11.124Z,57.43
2023-04-15T09:18:40.005Z,61.13
2023-04-15T09:21:09.415Z,66.27
2023-04-15T09:23:37.321Z,65.80
2023-04-15T09:26:07.116Z,66.40
2023-04-15T09:28:42.278Z,62.43
2023-04-15T09:31:10.580Z,70.93
2023-04-15T09:33:56.155Z,65.27
2023-04-15T09:36:25.127Z,63.43
2023-04-15T09:38:57.392Z,64.53
2023-04-15T09:41:26.771Z,63.63
2023-04-15T09:43:54.528Z,59.67
2023-04-15T09:46:22.617Z,61.67
2023-04-15T09:49:08.757Z,65.13
2023-04-15T09:51:37.406Z,56.47
2023-04-15T09:54:05.215Z,61.13
2023-04-15T09:56:37.816Z,61.90
2023-04-15T09:59:06.404Z,60.83
2023-04-15T10:01:34.363Z,63.73
2023-04-15T10:04:05.224Z,53.27
2023-04-15T10:06:33.574Z,52.37
2023-04-15T10:09:01.968Z,56.37
2023-04-15T10:11:31.819Z,57.53
2023-04-15T10:14:02.242Z,53.60
2023-04-15T10:16:31.503Z,58.60
2023-04-15T10:19:02.420Z,47.33
2023-04-15T10:21:32.176Z,56.73
2023-04-15T10:24:02.382Z,54.73
2023-04-15T10:26:30.981Z,51.67
2023-04-15T10:29:00.116Z,52.43
2023-04-15T10:31:30.834Z,52.70
2023-04-15T10:34:04.097Z,47.30
2023-04-15T10:36:32.196Z,50.47
2023-04-15T10:39:18.477Z,48.43
2023-04-15T10:41:46.368Z,46.60
2023-04-15T10:44:14.077Z,46.17
2023-04-15T10:46:44.525Z,49.53
2023-04-15T10:49:13.730Z,45.77
2023-04-15T10:51:42.970Z,44.40
2023-04-15T10:54:15.127Z,49.37
2023-04-15T10:56:43.951Z,45.97
2023-04-15T10:59:12.011Z,44.43
2023-04-15T11:01:54.308Z,42.77
2023-04-15T11:04:57.492Z,47.33
2023-04-15T11:07:38.787Z,37.40
2023-04-15T11:10:51.508Z,37.77
2023-04-15T11:13:22.878Z,37.30
2023-04-15T11:15:51.909Z,39.23
2023-04-15T11:18:22.594Z,42.47
2023-04-15T11:20:52.131Z,39.77
2023-04-15T11:23:21.290Z,40.30
2023-04-15T11:25:49.458Z,38.43
2023-04-15T11:28:17.303Z,38.43
2023-04-15T11:30:45.499Z,33.57
2023-04-15T11:33:14.103Z,35.67
2023-04-15T11:35:44.049Z,38.23
2023-04-15T11:38:13.682Z,37.50
2023-04-15T11:40:43.807Z,33.37
2023-04-15T11:43:15.959Z,33.07
2023-04-15T11:45:52.666Z,30.00
2023-04-15T11:48:22.097Z,31.00
2023-04-15T11:50:56.937Z,31.77
2023-04-15T11:53:26.021Z,31.33
2023-04-15T11:55:54.888Z,30.30
2023-04-15T11:58:24.437Z,29.37
2023-04-15T12:00:54.158Z,30.30
2023-04-15T12:03:27.877Z,27.93
2023-04-15T12:06:19.227Z,18.83
2023-04-15T12:09:08.493Z,17.63
2023-04-15T12:11:42.495Z,19.33
2023-04-15T12:14:17.656Z,18.23
2023-04-15T12:16:49.941Z,19.43
2023-04-15T12:19:25.859Z,19.27
2023-04-15T12:22:00.708Z,17.67
2023-04-15T12:24:29.044Z,15.43
2023-04-15T12:26:58.301Z,18.17
2023-04-15T12:29:28.703Z,16.40
2023-04-15T12:31:58.239Z,15.13
2023-04-15T12:34:30.663Z,15.60
2023-04-15T12:37:01.369Z,15.40
2023-04-15T12:39:31.394Z,15.50
2023-04-15T12:42:00.215Z,13.20
2023-04-15T12:44:28.917Z,14.73
2023-04-15T12:46:57.029Z,13.07
2023-04-15T12:49:25.637Z,12.47
2023-04-15T12:51:54.817Z,15.20
2023-04-15T12:54:23.996Z,13.53
2023-04-15T12:56:52.765Z,12.63
2023-04-15T12:59:20.554Z,13.17
2023-04-15T13:01:49.127Z,16.93
2023-04-15T13:04:17.449Z,13.07
2023-04-15T13:06:45.404Z,13.83
2023-04-15T13:09:13.149Z,14.30
2023-04-15T13:11:42.267Z,10.87
2023-04-15T13:14:11.603Z,12.97
2023-04-15T13:16:39.859Z,12.90
2023-04-15T13:19:07.983Z,10.50
2023-04-15T13:21:36.351Z,11.53
2023-04-15T13:24:07.140Z,13.40
2023-04-15T13:26:35.141Z,12.33
2023-04-15T13:29:04.579Z,11.57
2023-04-15T13:31:32.525Z,11.90
2023-04-15T13:34:01.671Z,11.43
2023-04-15T13:36:29.486Z,14.07
2023-04-15T13:38:57.821Z,14.83
2023-04-15T13:41:25.660Z,11.93
2023-04-15T13:43:53.421Z,15.33
2023-04-15T13:46:22.562Z,14.07
2023-04-15T13:48:50.287Z,13.00
2023-04-15T13:51:18.053Z,11.97
2023-04-15T13:53:45.775Z,13.17
2023-04-15T13:56:13.505Z,11.17
2023-04-15T13:58:42.399Z,12.27
2023-04-15T14:01:10.237Z,12.33
2023-04-15T14:03:39.514Z,10.73
2023-04-15T14:06:07.943Z,11.37
2023-04-15T14:08:35.706Z,10.33
2023-04-15T14:11:03.618Z,12.20
2023-04-15T14:13:31.404Z,11.70
2023-04-15T14:15:59.337Z,11.33
2023-04-15T14:18:27.249Z,11.13
2023-04-15T14:20:56.306Z,12.37
2023-04-15T14:23:24.658Z,10.93
2023-04-15T14:25:52.773Z,10.20
2023-04-15T14:28:20.473Z,14.43
2023-04-15T14:30:48.281Z,10.40
2023-04-15T14:33:16.227Z,11.43
2023-04-15T14:35:44.062Z,8.83
2023-04-15T14:38:13.281Z,10.00
2023-04-15T14:40:42.405Z,11.23
2023-04-15T14:43:10.205Z,9.53
2023-04-15T14:45:41.836Z,10.63
2023-04-15T14:48:12.721Z,10.90
2023-04-15T14:50:41.359Z,8.67
2023-04-15T14:53:09.127Z,9.55
2023-04-15T14:55:38.292Z,9.83
2023-04-15T14:58:06.105Z,10.70
2023-04-15T15:00:34.246Z,10.83
2023-04-15T15:03:02.168Z,10.50
2023-04-15T15:05:30.170Z,9.53
2023-04-15T15:07:57.989Z,12.27
2023-04-15T15:10:32.685Z,9.57
2023-04-15T15:13:14.484Z,12.47
2023-04-15T15:15:42.347Z,8.90
2023-04-15T15:18:10.265Z,10.17
2023-04-15T15:20:38.203Z,8.33
2023-04-15T15:23:05.879Z,10.50
2023-04-15T15:25:33.595Z,10.47
2023-04-15T15:28:01.246Z,10.47
2023-04-15T15:30:30.616Z,9.60
2023-04-15T15:32:58.399Z,9.73
2023-04-15T15:35:26.975Z,11.33
2023-04-15T15:37:55.005Z,9.23
2023-04-15T15:40:22.837Z,10.93
2023-04-15T15:42:51.055Z,10.30
2023-04-15T15:45:19.054Z,12.93
2023-04-15T15:47:48.538Z,9.87
2023-04-15T15:50:16.386Z,9.73
2023-04-15T15:52:44.206Z,9.30
2023-04-15T15:55:11.981Z,10.17
2023-04-15T15:57:39.663Z,10.37
2023-04-15T16:00:12.131Z,9.50
2023-04-15T16:05:12.669Z,11.00
2023-04-15T16:07:40.493Z,10.33
2023-04-15T16:10:09.266Z,9.57
2023-04-15T16:12:37.052Z,11.13
2023-04-15T16:15:05.333Z,9.70
2023-04-15T16:17:33.739Z,13.13
2023-04-15T16:20:05.394Z,10.97
2023-04-15T16:22:35.909Z,13.50
2023-04-15T16:25:03.811Z,11.37
2023-04-15T16:27:31.638Z,10.63
2023-04-15T16:29:59.394Z,13.10
2023-04-15T16:32:27.484Z,13.43
2023-04-15T16:34:55.340Z,14.20
2023-04-15T16:37:23.160Z,10.97
2023-04-15T16:39:52.299Z,11.10
2023-04-15T16:42:20.084Z,11.03
2023-04-15T16:44:47.830Z,12.07
2023-04-15T16:47:15.520Z,13.17
2023-04-15T16:49:43.439Z,11.80
2023-04-15T16:52:11.330Z,11.07
2023-04-15T16:54:41.401Z,11.17
2023-04-15T16:57:10.614Z,12.93
2023-04-15T16:59:39.151Z,11.90
2023-04-15T17:02:07.294Z,12.73
2023-04-15T17:04:35.913Z,12.73
2023-04-15T17:07:04.109Z,14.43
2023-04-15T17:09:31.851Z,12.53
2023-04-15T17:11:59.573Z,11.90
2023-04-15T17:14:29.631Z,13.27
2023-04-15T17:16:57.360Z,14.00
2023-04-15T17:19:26.730Z,13.43
2023-04-15T17:21:55.185Z,15.27
2023-04-15T17:24:23.203Z,13.00
2023-04-15T17:26:51.031Z,13.00
2023-04-15T17:29:18.761Z,13.60
2023-04-15T17:31:47.833Z,14.00
2023-04-15T17:34:16.169Z,14.43
2023-04-15T17:36:44.282Z,14.20
2023-04-15T17:39:14.039Z,14.93
2023-04-15T17:41:41.768Z,14.70
2023-04-15T17:44:09.521Z,15.13
2023-04-15T17:46:37.327Z,16.93
2023-04-15T17:49:06.774Z,19.10
2023-04-15T17:51:34.743Z,15.63
2023-04-15T17:54:02.590Z,17.07
2023-04-15T17:56:30.548Z,18.03
2023-04-15T17:58:58.852Z,16.67
2023-04-15T18:01:26.597Z,17.87
2023-04-15T18:03:54.624Z,18.90
2023-04-15T18:06:24.085Z,17.67
2023-04-15T18:08:52.690Z,18.20
2023-04-15T18:11:20.487Z,21.90
2023-04-15T18:13:48.158Z,17.57
2023-04-15T18:16:16.142Z,20.90
2023-04-15T18:18:44.019Z,18.87
2023-04-15T18:21:13.715Z,21.93
2023-04-15T18:23:43.027Z,20.00
2023-04-15T18:26:11.060Z,22.33
2023-04-15T18:28:39.823Z,21.10
2023-04-15T18:31:07.574Z,20.60
2023-04-15T18:33:35.958Z,20.70
2023-04-15T18:36:03.994Z,19.73
2023-04-15T18:38:32.010Z,18.93
2023-04-15T18:41:01.107Z,17.70
2023-04-15T18:43:28.873Z,20.53
2023-04-15T18:45:56.719Z,20.13
2023-04-15T18:48:24.572Z,19.30
2023-04-15T18:50:54.108Z,19.47
2023-04-15T18:53:22.069Z,24.17
2023-04-15T18:55:49.820Z,20.63
2023-04-15T18:58:18.890Z,22.17
2023-04-15T19:00:46.668Z,22.73
2023-04-15T19:03:14.736Z,27.03
2023-04-15T19:05:42.604Z,24.33
2023-04-15T19:08:11.242Z,23.27
2023-04-15T19:10:39.636Z,22.60
2023-04-15T19:13:07.472Z,22.50
2023-04-15T19:15:36.635Z,22.97
2023-04-15T19:18:10.322Z,20.53
2023-04-15T19:20:40.011Z,21.53
2023-04-15T19:23:08.364Z,21.83
2023-04-15T19:25:36.101Z,21.33
2023-04-15T19:28:03.889Z,22.13
2023-04-15T19:30:33.017Z,21.70
2023-04-15T19:33:02.221Z,19.67
2023-04-15T19:35:30.033Z,24.73
2023-04-15T19:37:57.888Z,22.30
2023-04-15T19:40:25.959Z,23.47
2023-04-15T19:42:53.688Z,23.67
2023-04-15T19:45:21.410Z,21.90
2023-04-15T19:47:49.330Z,23.00
2023-04-15T19:50:24.583Z,27.07
2023-04-15T19:52:52.465Z,20.23
2023-04-15T19:55:20.429Z,22.87
2023-04-15T19:57:48.179Z,20.70
2023-04-15T20:00:16.318Z,23.57
2023-04-15T20:02:44.072Z,24.73
2023-04-15T20:05:12.659Z,21.40
2023-04-15T20:07:42.568Z,22.90
2023-04-15T20:10:13.250Z,20.37
2023-04-15T20:12:49.256Z,21.80
2023-04-15T20:15:20.926Z,23.87
2023-04-15T20:17:48.675Z,20.77
2023-04-15T20:20:16.654Z,20.37
2023-04-15T20:22:45.714Z,22.37
2023-04-15T20:25:13.728Z,20.03
2023-04-15T20:27:41.477Z,22.93
2023-04-15T20:30:10.302Z,24.93
2023-04-15T20:32:38.752Z,23.43
2023-04-15T20:35:07.868Z,22.67
2023-04-15T20:37:36.263Z,22.43
2023-04-15T20:40:08.967Z,21.50
2023-04-15T20:42:36.682Z,21.83
2023-04-15T20:45:07.087Z,23.63
2023-04-15T20:47:34.817Z,23.87
2023-04-15T20:50:02.668Z,19.90
2023-04-15T20:52:30.457Z,22.17
2023-04-15T20:54:58.251Z,21.57
2023-04-15T20:57:28.796Z,22.90
2023-04-15T20:59:56.781Z,24.10
2023-04-15T21:02:24.971Z,24.97
2023-04-15T21:04:52.935Z,21.53
2023-04-15T21:07:20.732Z,24.10
2023-04-15T21:09:49.236Z,21.03
2023-04-15T21:12:17.169Z,22.20
2023-04-15T21:14:46.345Z,20.17
2023-04-15T21:17:14.224Z,25.47
2023-04-15T21:19:42.289Z,21.90
2023-04-15T21:22:10.186Z,20.93
2023-04-15T21:24:38.086Z,27.20
2023-04-15T21:27:06.176Z,23.13
2023-04-15T21:29:33.974Z,26.60
2023-04-15T21:32:03.302Z,27.27
2023-04-15T21:34:30.965Z,23.30
2023-04-15T21:36:58.685Z,20.20
2023-04-15T21:39:26.434Z,21.77
2023-04-15T21:41:54.255Z,21.27
2023-04-15T21:44:22.188Z,24.50
2023-04-15T21:46:51.530Z,23.60
2023-04-15T21:49:21.833Z,22.40
2023-04-15T21:51:50.398Z,23.60
2023-04-15T21:54:18.278Z,25.87
2023-04-15T21:56:46.052Z,28.87
2023-04-15T21:59:13.786Z,20.53
2023-04-15T22:01:41.544Z,23.23
2023-04-15T22:04:10.918Z,24.63
2023-04-15T22:06:40.700Z,22.87
2023-04-15T22:09:08.538Z,23.07
2023-04-15T22:11:36.306Z,22.17
2023-04-15T22:14:05.944Z,24.77
2023-04-15T22:16:33.732Z,22.47
2023-04-15T22:19:02.647Z,24.07
2023-04-15T22:21:30.486Z,22.87
2023-04-15T22:24:32.602Z,22.27
2023-04-15T22:26:47.249Z,23.33
2023-04-15T22:29:15.020Z,26.30
2023-04-15T22:31:42.872Z,26.43
2023-04-15T22:34:10.555Z,26.33
2023-04-15T22:36:38.531Z,26.77
2023-04-15T22:39:07.794Z,22.07
2023-04-15T22:41:35.580Z,25.20
2023-04-15T22:44:03.264Z,23.73
2023-04-15T22:46:31.258Z,24.57
2023-04-15T22:48:58.999Z,25.47
2023-04-15T22:51:28.030Z,23.43
2023-04-15T22:53:56.509Z,24.73
2023-04-15T22:56:25.587Z,23.27
2023-04-15T22:58:53.506Z,28.47
2023-04-15T23:01:21.463Z,25.17
2023-04-15T23:03:55.611Z,22.63
2023-04-15T23:06:27.294Z,27.60
2023-04-15T23:08:55.334Z,24.80
2023-04-15T23:11:23.076Z,25.73
2023-04-15T23:13:53.067Z,27.20
2023-04-15T23:16:20.973Z,24.90
2023-04-15T23:18:48.726Z,24.70
2023-04-15T23:21:17.022Z,24.23
2023-04-15T23:23:44.688Z,28.50
2023-04-15T23:26:12.341Z,26.60
2023-04-15T23:28:40.109Z,24.63
2023-04-15T23:31:09.168Z,24.93
2023-04-15T23:33:38.108Z,23.17
2023-04-15T23:36:06.701Z,29.67
2023-04-15T23:38:34.411Z,25.90
2023-04-15T23:41:02.171Z,26.00
2023-04-15T23:43:29.997Z,24.23
2023-04-15T23:45:57.722Z,23.73
2023-04-15T23:48:26.823Z,27.70
2023-04-15T23:50:54.537Z,26.00
2023-04-15T23:53:22.242Z,26.13
2023-04-15T23:55:49.930Z,27.30
2023-04-15T23:58:17.637Z,26.27
